createdAt,value
2019-02-14T00:01:45.054Z,91.10
2019-02-14T00:04:13.325Z,91.10
2019-02-14T00:06:41.598Z,91.10
2019-02-14T00:09:09.875Z,91.10
2019-02-14T00:11:38.588Z,91.10
2019-02-14T00:14:06.880Z,91.00
2019-02-14T00:16:35.167Z,90.90
2019-02-14T00:19:03.494Z,90.80
2019-02-14T00:21:31.803Z,90.90
2019-02-14T00:24:00.047Z,90.90
2019-02-14T00:26:28.315Z,90.80
2019-02-14T00:28:56.629Z,90.80
2019-02-14T00:31:24.895Z,90.90
2019-02-14T00:33:53.242Z,90.90
2019-02-14T00:36:21.566Z,91.00
2019-02-14T00:38:51.163Z,91.10
2019-02-14T00:41:19.452Z,91.10
2019-02-14T00:43:47.714Z,91.10
2019-02-14T00:46:15.991Z,91.10
2019-02-14T00:48:44.244Z,91.10
2019-02-14T00:51:12.522Z,91.00
2019-02-14T00:53:40.878Z,91.00
2019-02-14T00:56:09.278Z,91.00
2019-02-14T00:58:37.563Z,91.00
2019-02-14T01:01:05.839Z,91.10
2019-02-14T01:03:34.136Z,91.10
2019-02-14T01:06:02.495Z,91.40
2019-02-14T01:08:30.773Z,91.60
2019-02-14T01:10:59.069Z,91.80
2019-02-14T01:13:27.327Z,92.10
2019-02-14T01:15:55.689Z,92.30
2019-02-14T01:18:26.951Z,92.10
2019-02-14T01:20:55.226Z,91.90
2019-02-14T01:23:23.590Z,91.70
2019-02-14T01:25:51.806Z,91.60
2019-02-14T01:28:20.081Z,91.80
2019-02-14T01:30:48.396Z,91.90
2019-02-14T01:33:16.705Z,91.90
2019-02-14T01:35:45.014Z,91.80
2019-02-14T01:38:13.286Z,91.90
2019-02-14T01:40:41.553Z,92.20
2019-02-14T01:43:09.818Z,92.40
2019-02-14T01:45:38.124Z,92.50
2019-02-14T01:48:06.370Z,92.40
2019-02-14T01:50:34.758Z,92.20
2019-02-14T01:53:03.015Z,92.10
2019-02-14T01:55:32.542Z,92.00
2019-02-14T01:58:01.005Z,91.80
2019-02-14T02:00:29.256Z,91.70
2019-02-14T02:02:57.518Z,91.60
2019-02-14T02:05:25.835Z,91.50
2019-02-14T02:07:54.114Z,91.40
2019-02-14T02:10:22.349Z,91.10
2019-02-14T02:12:50.602Z,91.00
2019-02-14T02:15:18.888Z,91.30
2019-02-14T02:17:47.194Z,91.50
2019-02-14T02:20:15.462Z,91.70
2019-02-14T02:22:43.690Z,91.80
2019-02-14T02:25:12.379Z,91.90
2019-02-14T02:27:40.763Z,92.00
2019-02-14T02:30:13.917Z,92.10
2019-02-14T02:32:42.261Z,92.20
2019-02-14T02:35:15.524Z,92.30
2019-02-14T02:37:43.831Z,92.30
2019-02-14T02:40:12.079Z,92.30
2019-02-14T02:42:40.488Z,92.30
2019-02-14T02:45:12.664Z,92.40
2019-02-14T02:47:41.179Z,92.50
2019-02-14T02:50:11.484Z,92.60
2019-02-14T02:52:39.781Z,92.60
2019-02-14T02:55:09.898Z,92.60
2019-02-14T02:57:38.146Z,92.60
2019-02-14T03:00:23.165Z,92.60
2019-02-14T03:02:51.482Z,92.70
2019-02-14T03:05:19.807Z,92.70
2019-02-14T03:07:48.109Z,92.80
2019-02-14T03:10:16.371Z,92.90
2019-02-14T03:12:44.696Z,93.00
2019-02-14T03:15:16.438Z,93.10
2019-02-14T03:17:44.768Z,93.30
2019-02-14T03:20:13.704Z,93.50
2019-02-14T03:22:41.982Z,93.50
2019-02-14T03:25:18.234Z,93.50
2019-02-14T03:27:46.536Z,93.50
2019-02-14T03:30:15.931Z,93.50
2019-02-14T03:32:44.213Z,93.50
2019-02-14T03:35:12.622Z,93.60
2019-02-14T03:37:40.852Z,93.70
2019-02-14T03:40:11.174Z,93.60
2019-02-14T03:42:39.450Z,93.50
2019-02-14T03:45:10.917Z,93.50
2019-02-14T03:47:40.816Z,93.40
2019-02-14T03:50:12.565Z,93.40
2019-02-14T03:52:40.862Z,93.40
2019-02-14T03:55:10.223Z,93.40
2019-02-14T03:58:00.998Z,93.40
2019-02-14T04:00:29.282Z,93.30
2019-02-14T04:02:57.599Z,93.30
2019-02-14T04:05:25.867Z,93.70
2019-02-14T04:07:54.126Z,93.40
2019-02-14T04:10:22.446Z,93.40
2019-02-14T04:12:50.708Z,93.40
2019-02-14T04:15:19.061Z,93.40
2019-02-14T04:17:47.347Z,93.40
2019-02-14T04:20:15.658Z,93.30
2019-02-14T04:22:43.910Z,93.30
2019-02-14T04:25:12.186Z,93.30
2019-02-14T04:27:40.564Z,93.30
2019-02-14T04:30:11.214Z,93.40
2019-02-14T04:32:39.503Z,93.40
2019-02-14T04:35:07.761Z,93.40
2019-02-14T04:37:36.027Z,93.30
2019-02-14T04:40:33.513Z,93.30
2019-02-14T04:42:58.922Z,93.20
2019-02-14T04:45:27.162Z,93.10
2019-02-14T04:47:55.446Z,93.00
2019-02-14T04:50:23.725Z,93.10
2019-02-14T04:52:52.009Z,93.10
2019-02-14T04:55:20.269Z,93.20
2019-02-14T04:57:48.534Z,93.30
2019-02-14T05:00:16.809Z,93.30
2019-02-14T05:02:45.058Z,93.40
2019-02-14T05:05:13.291Z,93.40
2019-02-14T05:07:41.651Z,93.60
2019-02-14T05:10:13.532Z,93.50
2019-02-14T05:12:41.993Z,93.40
2019-02-14T05:15:10.905Z,93.50
2019-02-14T05:17:39.200Z,93.60
2019-02-14T05:20:11.264Z,93.60
2019-02-14T05:22:39.546Z,93.60
2019-02-14T05:25:28.877Z,93.90
2019-02-14T05:27:57.275Z,94.00
2019-02-14T05:30:25.567Z,94.10
2019-02-14T05:32:53.850Z,94.10
2019-02-14T05:35:22.223Z,94.10
2019-02-14T05:37:50.514Z,94.00
2019-02-14T05:40:18.793Z,94.00
2019-02-14T05:42:47.049Z,94.00
2019-02-14T05:45:15.499Z,94.00
2019-02-14T05:47:46.459Z,94.00
2019-02-14T05:50:14.913Z,94.10
2019-02-14T05:52:43.252Z,94.00
2019-02-14T05:55:12.352Z,94.10
2019-02-14T05:57:40.683Z,94.10
2019-02-14T06:00:12.178Z,94.10
2019-02-14T06:02:40.414Z,94.10
2019-02-14T06:05:08.806Z,94.10
2019-02-14T06:07:37.078Z,94.00
2019-02-14T06:10:08.089Z,93.90
2019-02-14T06:12:36.398Z,94.00
2019-02-14T06:15:07.650Z,94.00
2019-02-14T06:17:36.098Z,94.00
2019-02-14T06:20:05.747Z,94.10
2019-02-14T06:22:34.067Z,94.10
2019-02-14T06:25:02.355Z,94.10
2019-02-14T06:27:30.671Z,94.10
2019-02-14T06:29:58.960Z,94.10
2019-02-14T06:32:27.227Z,94.10
2019-02-14T06:34:55.480Z,94.00
2019-02-14T06:37:23.743Z,94.00
2019-02-14T06:39:52.036Z,94.00
2019-02-14T06:42:20.398Z,94.10
2019-02-14T06:44:48.632Z,94.10
2019-02-14T06:47:16.950Z,94.10
2019-02-14T06:49:45.226Z,94.20
2019-02-14T06:52:13.522Z,94.20
2019-02-14T06:54:41.896Z,94.20
2019-02-14T06:57:10.193Z,94.30
2019-02-14T06:59:38.533Z,94.30
2019-02-14T07:02:06.908Z,94.30
2019-02-14T07:04:35.157Z,94.20
2019-02-14T07:07:03.491Z,94.20
2019-02-14T07:09:31.945Z,94.00
2019-02-14T07:12:00.225Z,93.90
2019-02-14T07:14:28.478Z,93.90
2019-02-14T07:16:56.814Z,93.90
2019-02-14T07:19:25.068Z,93.90
2019-02-14T07:21:54.834Z,93.80
2019-02-14T07:24:23.122Z,93.70
2019-02-14T07:26:51.436Z,93.60
2019-02-14T07:29:19.726Z,93.40
2019-02-14T07:31:48.070Z,93.30
2019-02-14T07:34:16.354Z,93.10
2019-02-14T07:36:44.763Z,92.80
2019-02-14T07:39:13.242Z,92.70
2019-02-14T07:41:41.485Z,92.90
2019-02-14T07:44:09.780Z,92.30
2019-02-14T07:46:38.027Z,92.10
2019-02-14T07:49:06.330Z,91.80
2019-02-14T07:51:34.574Z,91.50
2019-02-14T07:54:02.855Z,91.40
2019-02-14T07:56:31.204Z,91.60
2019-02-14T07:58:59.483Z,91.60
2019-02-14T08:01:27.763Z,91.60
2019-02-14T08:03:56.055Z,91.60
2019-02-14T08:06:24.332Z,91.50
2019-02-14T08:08:52.588Z,91.50
2019-02-14T08:11:21.192Z,91.30
2019-02-14T08:13:49.866Z,91.30
2019-02-14T08:16:18.259Z,91.30
2019-02-14T08:18:47.795Z,91.40
2019-02-14T08:21:16.291Z,91.60
2019-02-14T08:23:44.559Z,91.60
2019-02-14T08:26:13.640Z,91.60
2019-02-14T08:29:01.576Z,91.60
2019-02-14T08:31:29.828Z,91.60
2019-02-14T08:33:58.141Z,91.50
2019-02-14T08:36:26.456Z,91.40
2019-02-14T08:38:54.698Z,91.30
2019-02-14T08:41:23.007Z,91.20
2019-02-14T08:43:51.300Z,91.10
2019-02-14T08:46:19.542Z,90.80
2019-02-14T08:48:47.811Z,90.60
2019-02-14T08:51:16.067Z,90.50
2019-02-14T08:53:44.328Z,90.40
2019-02-14T08:56:12.609Z,90.40
2019-02-14T08:58:40.959Z,90.40
2019-02-14T09:01:14.874Z,90.30
2019-02-14T09:03:43.176Z,90.20
2019-02-14T09:06:11.483Z,89.90
2019-02-14T09:08:39.785Z,89.40
2019-02-14T09:11:08.078Z,88.90
2019-02-14T09:13:36.408Z,88.40
2019-02-14T09:16:06.390Z,88.00
2019-02-14T09:18:34.689Z,87.70
2019-02-14T09:21:03.120Z,87.30
2019-02-14T09:23:31.379Z,87.00
2019-02-14T09:25:59.714Z,86.60
2019-02-14T09:28:28.067Z,86.20
2019-02-14T09:30:56.314Z,85.70
2019-02-14T09:33:24.623Z,85.40
2019-02-14T09:35:52.875Z,84.90
2019-02-14T09:38:21.150Z,84.00
2019-02-14T09:40:54.525Z,83.30
2019-02-14T09:43:33.463Z,82.50
2019-02-14T09:46:01.756Z,81.70
2019-02-14T09:48:33.080Z,80.40
2019-02-14T09:51:01.415Z,79.80
2019-02-14T09:53:29.748Z,79.40
2019-02-14T09:55:58.019Z,79.20
2019-02-14T09:58:26.295Z,78.90
2019-02-14T10:00:54.584Z,78.90
2019-02-14T10:03:22.891Z,79.10
2019-02-14T10:05:51.200Z,78.00
2019-02-14T10:08:19.576Z,77.70
2019-02-14T10:10:47.819Z,77.60
2019-02-14T10:13:16.089Z,77.10
2019-02-14T10:15:44.342Z,76.20
2019-02-14T10:18:12.673Z,75.20
2019-02-14T10:20:40.978Z,74.20
2019-02-14T10:23:10.602Z,73.30
2019-02-14T10:25:39.007Z,73.70
2019-02-14T10:28:09.297Z,74.40
2019-02-14T10:30:37.599Z,75.50
2019-02-14T10:33:05.891Z,76.00
2019-02-14T10:35:34.168Z,76.30
2019-02-14T10:38:02.528Z,76.20
2019-02-14T10:40:31.089Z,75.30
2019-02-14T10:42:59.314Z,75.30
2019-02-14T10:45:27.627Z,73.90
2019-02-14T10:47:55.876Z,72.90
2019-02-14T10:50:24.191Z,72.70
2019-02-14T10:52:52.579Z,72.40
2019-02-14T10:55:20.875Z,72.60
2019-02-14T10:57:49.574Z,72.90
2019-02-14T11:00:23.345Z,72.60
2019-02-14T11:02:51.651Z,71.50
2019-02-14T11:05:20.404Z,71.40
2019-02-14T11:07:48.744Z,71.10
2019-02-14T11:10:17.295Z,70.70
2019-02-14T11:12:45.563Z,70.20
2019-02-14T11:15:21.560Z,69.50
2019-02-14T11:17:50.125Z,67.90
2019-02-14T11:20:18.463Z,68.00
2019-02-14T11:22:48.797Z,68.70
2019-02-14T11:25:25.731Z,69.00
2019-02-14T11:27:54.135Z,69.20
2019-02-14T11:30:22.431Z,68.90
2019-02-14T11:32:50.706Z,69.00
2019-02-14T11:35:19.144Z,69.00
2019-02-14T11:37:47.381Z,68.80
2019-02-14T11:40:15.928Z,68.40
2019-02-14T11:42:44.223Z,68.30
2019-02-14T11:45:39.634Z,68.60
2019-02-14T11:48:07.961Z,69.20
2019-02-14T11:50:36.330Z,69.00
2019-02-14T11:53:13.845Z,68.70
2019-02-14T11:55:36.205Z,68.40
2019-02-14T11:58:04.463Z,68.20
2019-02-14T12:00:32.906Z,67.80
2019-02-14T12:03:01.279Z,67.30
2019-02-14T12:05:29.641Z,67.10
2019-02-14T12:07:58.000Z,66.80
2019-02-14T12:10:26.341Z,66.00
2019-02-14T12:12:54.629Z,65.90
2019-02-14T12:15:26.500Z,66.20
2019-02-14T12:17:54.913Z,66.30
2019-02-14T12:20:23.240Z,65.70
2019-02-14T12:22:51.521Z,65.10
2019-02-14T12:25:23.145Z,64.70
2019-02-14T12:27:51.586Z,64.60
2019-02-14T12:30:19.844Z,64.60
2019-02-14T12:32:48.196Z,64.50
2019-02-14T12:35:16.671Z,64.80
2019-02-14T12:37:45.092Z,64.90
2019-02-14T12:40:14.108Z,64.50
2019-02-14T12:42:42.631Z,64.40
2019-02-14T12:45:21.537Z,64.30
2019-02-14T12:47:49.818Z,64.00
2019-02-14T12:50:18.220Z,63.50
2019-02-14T12:52:47.961Z,63.30
2019-02-14T12:55:16.309Z,62.50
2019-02-14T12:57:45.398Z,62.20
2019-02-14T13:00:17.242Z,62.70
2019-02-14T13:02:45.705Z,63.30
2019-02-14T13:05:14.054Z,63.50
2019-02-14T13:07:42.417Z,63.80
2019-02-14T13:10:12.806Z,63.40
2019-02-14T13:12:41.113Z,63.10
2019-02-14T13:15:15.636Z,62.60
2019-02-14T13:17:43.887Z,62.70
2019-02-14T13:20:12.314Z,62.30
2019-02-14T13:22:41.074Z,62.40
2019-02-14T13:25:11.073Z,62.30
2019-02-14T13:27:42.012Z,62.70
2019-02-14T13:30:13.435Z,62.50
2019-02-14T13:32:42.214Z,62.00
2019-02-14T13:35:10.567Z,61.80
2019-02-14T13:37:40.089Z,61.30
2019-02-14T13:40:09.029Z,60.70
2019-02-14T13:42:37.439Z,60.70
2019-02-14T13:45:12.382Z,60.70
2019-02-14T13:47:40.626Z,60.50
2019-02-14T13:50:15.930Z,60.60
2019-02-14T13:52:44.177Z,60.90
2019-02-14T13:55:12.442Z,61.10
2019-02-14T13:57:40.679Z,61.30
2019-02-14T14:00:29.116Z,61.40
2019-02-14T14:02:58.866Z,61.50
2019-02-14T14:05:27.438Z,61.50
2019-02-14T14:07:55.807Z,61.60
2019-02-14T14:10:24.173Z,61.50
2019-02-14T14:12:52.464Z,61.40
2019-02-14T14:15:20.980Z,61.30
2019-02-14T14:17:49.479Z,61.30
2019-02-14T14:20:17.726Z,61.40
2019-02-14T14:22:47.143Z,61.00
2019-02-14T14:25:15.418Z,60.70
2019-02-14T14:27:43.643Z,60.60
2019-02-14T14:30:13.090Z,60.80
2019-02-14T14:32:41.460Z,60.60
2019-02-14T14:35:11.283Z,60.70
2019-02-14T14:37:39.942Z,60.70
2019-02-14T14:40:14.933Z,60.70
2019-02-14T14:42:53.613Z,60.60
2019-02-14T14:45:29.941Z,60.60
2019-02-14T14:47:58.201Z,60.80
2019-02-14T14:50:26.461Z,60.80
2019-02-14T14:52:54.697Z,60.70
2019-02-14T14:55:22.974Z,60.40
2019-02-14T14:57:51.294Z,59.80
2019-02-14T15:00:19.637Z,59.40
2019-02-14T15:02:47.919Z,59.30
2019-02-14T15:05:16.286Z,59.30
2019-02-14T15:07:44.592Z,59.30
2019-02-14T15:10:12.858Z,59.50
2019-02-14T15:12:41.208Z,59.70
2019-02-14T15:15:09.676Z,59.80
2019-02-14T15:17:38.024Z,60.00
2019-02-14T15:20:12.498Z,60.20
2019-02-14T15:22:43.563Z,60.10
2019-02-14T15:25:11.814Z,60.30
2019-02-14T15:27:40.089Z,60.30
2019-02-14T15:30:08.396Z,60.50
2019-02-14T15:32:36.790Z,60.60
2019-02-14T15:35:07.198Z,60.60
2019-02-14T15:37:35.716Z,60.40
2019-02-14T15:40:09.875Z,60.40
2019-02-14T15:42:38.356Z,60.50
2019-02-14T15:45:07.976Z,60.30
2019-02-14T15:47:36.255Z,60.20
2019-02-14T15:50:09.040Z,60.10
2019-02-14T15:52:37.440Z,60.00
2019-02-14T15:55:07.211Z,59.70
2019-02-14T15:57:35.468Z,59.70
2019-02-14T16:00:06.684Z,60.20
2019-02-14T16:02:37.113Z,60.70
2019-02-14T16:05:06.549Z,61.30
2019-02-14T16:07:36.846Z,61.20
2019-02-14T16:10:07.591Z,61.70
2019-02-14T16:12:35.878Z,62.10
2019-02-14T16:15:07.023Z,62.20
2019-02-14T16:17:35.406Z,62.60
2019-02-14T16:20:08.671Z,62.90
2019-02-14T16:22:36.958Z,63.70
2019-02-14T16:25:07.017Z,64.80
2019-02-14T16:27:35.710Z,65.00
2019-02-14T16:30:09.457Z,65.30
2019-02-14T16:32:38.044Z,66.10
2019-02-14T16:35:07.379Z,65.80
2019-02-14T16:37:35.734Z,66.90
2019-02-14T16:40:05.108Z,67.50
2019-02-14T16:42:33.436Z,67.90
2019-02-14T16:45:01.803Z,68.70
2019-02-14T16:47:30.133Z,68.90
2019-02-14T16:49:58.535Z,69.10
2019-02-14T16:52:26.907Z,69.30
2019-02-14T16:54:55.327Z,70.50
2019-02-14T16:57:23.589Z,71.10
2019-02-14T16:59:51.865Z,71.70
2019-02-14T17:02:20.161Z,72.10
2019-02-14T17:04:48.427Z,72.80
2019-02-14T17:07:16.731Z,73.30
2019-02-14T17:09:44.971Z,74.00
2019-02-14T17:12:13.235Z,74.30
2019-02-14T17:14:41.556Z,74.70
2019-02-14T17:17:09.900Z,75.20
2019-02-14T17:19:38.271Z,75.30
2019-02-14T17:22:06.535Z,75.40
2019-02-14T17:24:34.950Z,75.80
2019-02-14T17:27:03.243Z,76.30
2019-02-14T17:29:31.575Z,76.80
2019-02-14T17:31:59.931Z,77.50
2019-02-14T17:34:28.198Z,77.50
2019-02-14T17:36:56.483Z,77.90
2019-02-14T17:39:24.748Z,79.00
2019-02-14T17:41:53.037Z,79.50
2019-02-14T17:44:21.336Z,79.80
2019-02-14T17:46:49.618Z,80.40
2019-02-14T17:49:17.866Z,80.80
2019-02-14T17:51:46.190Z,81.00
2019-02-14T17:54:14.428Z,81.20
2019-02-14T17:56:42.686Z,81.20
2019-02-14T17:59:12.333Z,80.90
2019-02-14T18:01:40.672Z,80.90
2019-02-14T18:04:10.668Z,81.20
2019-02-14T18:06:38.987Z,81.30
2019-02-14T18:09:07.388Z,81.50
2019-02-14T18:11:35.714Z,81.90
2019-02-14T18:14:04.090Z,82.60
2019-02-14T18:16:32.382Z,83.00
2019-02-14T18:19:00.677Z,83.10
2019-02-14T18:21:28.934Z,83.20
2019-02-14T18:23:57.210Z,83.00
2019-02-14T18:26:25.499Z,83.00
2019-02-14T18:28:53.757Z,83.10
2019-02-14T18:31:22.131Z,83.10
2019-02-14T18:33:50.431Z,83.30
2019-02-14T18:36:18.725Z,83.00
2019-02-14T18:38:47.102Z,83.00
2019-02-14T18:41:15.511Z,83.10
2019-02-14T18:43:43.929Z,83.30
2019-02-14T18:46:12.244Z,83.10
2019-02-14T18:48:40.664Z,83.60
2019-02-14T18:51:09.087Z,84.90
2019-02-14T18:53:37.430Z,85.60
2019-02-14T18:56:05.787Z,86.00
2019-02-14T18:58:34.073Z,86.20
2019-02-14T19:01:03.587Z,86.70
2019-02-14T19:03:32.081Z,87.20
2019-02-14T19:06:00.473Z,87.60
2019-02-14T19:08:28.792Z,87.90
2019-02-14T19:10:57.142Z,87.90
2019-02-14T19:13:25.559Z,87.90
2019-02-14T19:15:54.776Z,88.00
2019-02-14T19:18:23.186Z,88.10
2019-02-14T19:20:51.639Z,88.10
2019-02-14T19:23:24.425Z,88.00
2019-02-14T19:25:52.159Z,88.00
2019-02-14T19:28:20.461Z,88.10
2019-02-14T19:30:48.775Z,88.20
2019-02-14T19:33:17.066Z,87.70
2019-02-14T19:35:45.361Z,87.50
2019-02-14T19:38:13.673Z,87.70
2019-02-14T19:40:41.942Z,87.90
2019-02-14T19:43:10.415Z,88.30
2019-02-14T19:45:38.653Z,88.90
2019-02-14T19:48:07.210Z,89.40
2019-02-14T19:50:35.474Z,89.70
2019-02-14T19:53:03.732Z,90.00
2019-02-14T19:55:32.073Z,90.00
2019-02-14T19:58:00.352Z,90.00
2019-02-14T20:00:30.270Z,90.00
2019-02-14T20:03:04.215Z,90.00
2019-02-14T20:05:32.753Z,90.10
2019-02-14T20:08:01.252Z,90.20
2019-02-14T20:10:29.773Z,90.20
2019-02-14T20:12:58.092Z,90.00
2019-02-14T20:15:26.493Z,90.00
2019-02-14T20:17:54.762Z,90.20
2019-02-14T20:20:23.106Z,90.20
2019-02-14T20:22:51.378Z,90.20
2019-02-14T20:25:22.891Z,90.20
2019-02-14T20:27:51.118Z,90.30
2019-02-14T20:30:19.555Z,90.40
2019-02-14T20:35:22.362Z,90.60
2019-02-14T20:37:50.757Z,90.80
2019-02-14T20:40:19.406Z,91.00
2019-02-14T20:42:48.336Z,91.10
2019-02-14T20:45:16.829Z,91.20
2019-02-14T20:47:46.081Z,91.60
2019-02-14T20:50:19.740Z,91.50
2019-02-14T20:52:48.448Z,91.50
2019-02-14T20:55:22.613Z,91.40
2019-02-14T20:57:51.019Z,91.40
2019-02-14T21:00:26.830Z,91.30
2019-02-14T21:02:56.858Z,91.20
2019-02-14T21:05:25.659Z,91.10
2019-02-14T21:07:54.021Z,91.00
2019-02-14T21:10:22.507Z,90.90
2019-02-14T21:12:50.791Z,90.90
2019-02-14T21:15:19.116Z,90.70
2019-02-14T21:17:47.672Z,90.70
2019-02-14T21:20:16.592Z,90.40
2019-02-14T21:22:44.867Z,90.20
2019-02-14T21:25:13.223Z,90.10
2019-02-14T21:27:41.602Z,90.10
2019-02-14T21:30:21.500Z,90.00
2019-02-14T21:32:50.336Z,90.10
2019-02-14T21:35:18.798Z,90.00
2019-02-14T21:37:47.674Z,89.60
2019-02-14T21:40:17.933Z,89.20
2019-02-14T21:42:46.589Z,89.30
2019-02-14T21:45:16.202Z,89.20
2019-02-14T21:47:44.524Z,88.90
2019-02-14T21:50:17.760Z,88.60
2019-02-14T21:52:47.829Z,88.70
2019-02-14T21:55:18.001Z,88.70
2019-02-14T21:57:46.382Z,88.50
2019-02-14T22:00:26.276Z,88.20
2019-02-14T22:02:56.231Z,88.20
2019-02-14T22:05:26.586Z,87.90
2019-02-14T22:14:08.812Z,87.00
2019-02-14T22:17:00.162Z,86.90
2019-02-14T22:19:47.395Z,87.10
2019-02-14T22:22:31.215Z,86.80
2019-02-14T22:25:05.534Z,86.60
2019-02-14T22:27:34.035Z,86.30
2019-02-14T22:30:04.109Z,86.00
2019-02-14T22:32:38.018Z,85.50
2019-02-14T22:35:10.592Z,85.20
2019-02-14T22:37:48.151Z,84.90
2019-02-14T22:40:20.477Z,84.90
2019-02-14T22:42:55.798Z,84.90
2019-02-14T22:45:27.393Z,84.70
2019-02-14T22:48:05.549Z,84.40
2019-02-14T22:50:44.439Z,84.70
2019-02-14T22:53:22.942Z,85.10
2019-02-14T22:56:05.179Z,85.30
2019-02-14T23:01:32.713Z,86.10
2019-02-14T23:04:15.881Z,86.30
2019-02-14T23:06:36.347Z,86.50
2019-02-14T23:09:14.684Z,86.60
2019-02-14T23:11:42.927Z,86.70
2019-02-14T23:14:11.192Z,87.00
2019-02-14T23:16:39.451Z,87.10
2019-02-14T23:19:07.707Z,87.20
2019-02-14T23:21:35.994Z,87.10
2019-02-14T23:24:04.237Z,87.20
2019-02-14T23:26:32.585Z,87.30
2019-02-14T23:29:00.831Z,87.50
2019-02-14T23:31:29.087Z,87.60
2019-02-14T23:33:57.448Z,87.60
2019-02-14T23:36:25.663Z,87.60
2019-02-14T23:38:53.939Z,87.70
2019-02-14T23:41:22.185Z,87.80
2019-02-14T23:43:50.532Z,88.00
2019-02-14T23:46:18.839Z,88.50
2019-02-14T23:48:47.196Z,88.70
2019-02-14T23:51:15.432Z,89.40
2019-02-14T23:53:45.283Z,90.00
2019-02-14T23:56:13.510Z,90.10
2019-02-14T23:58:41.811Z,90.00
